Bacau, Romania
Current Conditions -  °F | °C
As of 4:30 PM on Friday 24 Oct 2014 (Local Time) from LRBC Reporting Station
Broken Clouds Broken Clouds  
Wind Chill: 29°   Ceiling: 1700
Heat Index: 37°   Visibility: 6mi
Dew Point: 36°   Wind: 14mph
Humidity: 93%   Direction: 350°N
Pressure: 30.27"   Gusts: NA
Location:  46.58°N, 26.92°E
Report Text: LRBC 241330Z 35012KT 9999 FEW009 BKN017 03/02 Q1025
Loading
Personal Weather Stations






























Interactive Weather Map
Tropical Storm Tracking
New forecast layout! Learn more

10-Day Weather Forecast

Advertisements
Track Severe Weather on mobile